Time;durP1;ratioP1;P1;durP2;ratioP2;P2;SDS_P1;SDS_P2;PMS_P1;PMS_P2;Temp;Humidity;BMP_temperature;BMP_pressure;BME280_temperature;BME280_humidity;BME280_pressure;Samples;Min_cycle;Max_cycle;Signal;HPM_P1;HPM_P2
2021/04/07 00:01:05;;;;;;;8.03;3.53;;;;;;;;;;5028151;28;20453;-80
2021/04/07 00:03:31;;;;;;;6.53;3.38;;;;;;;;;;5028139;28;20747;-81
2021/04/07 00:05:57;;;;;;;7.63;3.42;;;;;;;;;;5027153;28;20402;-81
2021/04/07 00:08:26;;;;;;;7.90;3.70;;;;;;;;;;5026849;28;20907;-82
2021/04/07 00:10:53;;;;;;;6.90;3.80;;;;;;;;;;5029278;28;20459;-80
2021/04/07 00:13:19;;;;;;;9.50;3.78;;;;;;;;;;5029442;28;20377;-82
2021/04/07 00:15:45;;;;;;;11.20;4.40;;;;;;;;;;5030102;28;20412;-82
2021/04/07 00:18:12;;;;;;;9.48;4.00;;;;;;;;;;5030319;28;20409;-79
2021/04/07 00:20:38;;;;;;;9.27;4.25;;;;;;;;;;5033420;28;20373;-81
2021/04/07 00:23:05;;;;;;;8.00;3.65;;;;;;;;;;5034653;28;20377;-79
2021/04/07 00:25:31;;;;;;;8.63;4.03;;;;;;;;;;5033297;28;20388;-81
2021/04/07 00:28:02;;;;;;;9.43;4.00;;;;;;;;;;5033699;28;20416;-79
2021/04/07 00:30:33;;;;;;;9.68;4.00;;;;;;;;;;5035280;28;20416;-82
2021/04/07 00:32:59;;;;;;;10.63;4.18;;;;;;;;;;5035074;28;20866;-80
2021/04/07 00:35:25;;;;;;;10.73;4.30;;;;;;;;;;5033359;28;20374;-80
2021/04/07 00:37:52;;;;;;;11.65;4.88;;;;;;;;;;5031334;28;20479;-81
2021/04/07 00:40:18;;;;;;;8.13;4.17;;;;;;;;;;5033011;28;20365;-80
2021/04/07 00:42:47;;;;;;;9.48;4.20;;;;;;;;;;5032787;28;20378;-83
2021/04/07 00:45:13;;;;;;;12.82;4.97;;;;;;;;;;5033279;28;20388;-79
2021/04/07 00:47:40;;;;;;;8.77;4.47;;;;;;;;;;5031355;28;20918;-82
2021/04/07 00:50:07;;;;;;;9.27;4.15;;;;;;;;;;5031656;28;20736;-82
2021/04/07 00:52:33;;;;;;;10.23;4.47;;;;;;;;;;5031052;28;20901;-80
2021/04/07 00:55:00;;;;;;;11.38;4.47;;;;;;;;;;5032799;28;20456;-81
2021/04/07 00:57:26;;;;;;;9.80;4.32;;;;;;;;;;5032054;28;20927;-79
2021/04/07 00:59:52;;;;;;;8.63;4.03;;;;;;;;;;5031449;28;20416;-82
2021/04/07 01:02:20;;;;;;;7.13;4.03;;;;;;;;;;5032324;28;20460;-79
2021/04/07 01:04:49;;;;;;;10.02;3.88;;;;;;;;;;5030990;28;20385;-81
2021/04/07 01:07:15;;;;;;;8.10;3.95;;;;;;;;;;5031505;28;20479;-81
2021/04/07 01:09:43;;;;;;;9.80;4.38;;;;;;;;;;5030698;28;20779;-81
2021/04/07 01:12:09;;;;;;;8.27;3.92;;;;;;;;;;5030771;28;20362;-79
2021/04/07 01:14:36;;;;;;;9.25;4.40;;;;;;;;;;5032414;28;20464;-80
2021/04/07 01:17:02;;;;;;;9.63;4.00;;;;;;;;;;5031969;28;20397;-82
2021/04/07 01:19:28;;;;;;;9.75;4.47;;;;;;;;;;5032296;28;20395;-80
2021/04/07 01:21:55;;;;;;;9.43;4.20;;;;;;;;;;5032136;28;20373;-80
2021/04/07 01:24:21;;;;;;;10.10;4.53;;;;;;;;;;5030673;28;20507;-81
2021/04/07 01:26:48;;;;;;;8.07;4.40;;;;;;;;;;5032083;28;20456;-81
2021/04/07 01:29:14;;;;;;;7.28;4.22;;;;;;;;;;5031608;28;20413;-79
2021/04/07 01:31:44;;;;;;;8.68;4.25;;;;;;;;;;5031087;28;20697;-80
2021/04/07 01:34:16;;;;;;;10.15;4.47;;;;;;;;;;5031820;28;20369;-79
2021/04/07 01:36:42;;;;;;;9.53;4.47;;;;;;;;;;5032652;28;20457;-80
2021/04/07 01:39:08;;;;;;;10.30;4.90;;;;;;;;;;5030926;28;20879;-82
2021/04/07 01:41:34;;;;;;;9.85;4.22;;;;;;;;;;5031085;28;20393;-79
2021/04/07 01:44:00;;;;;;;9.27;4.90;;;;;;;;;;5032562;28;20412;-82
2021/04/07 01:46:26;;;;;;;10.80;4.50;;;;;;;;;;5031800;28;20442;-81
2021/04/07 01:48:52;;;;;;;10.07;4.53;;;;;;;;;;5031608;28;20480;-81
2021/04/07 01:51:18;;;;;;;8.63;4.80;;;;;;;;;;5032043;28;20938;-79
2021/04/07 01:53:44;;;;;;;8.55;4.65;;;;;;;;;;5030598;28;20739;-80
2021/04/07 01:56:10;;;;;;;7.47;4.37;;;;;;;;;;5030217;28;20372;-79
2021/04/07 01:58:37;;;;;;;7.93;4.57;;;;;;;;;;5031461;28;20396;-82
2021/04/07 02:01:03;;;;;;;9.50;4.55;;;;;;;;;;5030142;28;20487;-80
2021/04/07 02:03:29;;;;;;;8.53;4.60;;;;;;;;;;5031731;28;20452;-80
2021/04/07 02:05:56;;;;;;;8.02;4.30;;;;;;;;;;5031478;28;20381;-80
2021/04/07 02:08:22;;;;;;;8.70;4.22;;;;;;;;;;5029059;28;20519;-81
2021/04/07 02:10:48;;;;;;;10.20;4.95;;;;;;;;;;5030059;28;20437;-81
2021/04/07 02:13:14;;;;;;;8.93;5.07;;;;;;;;;;5031221;28;20377;-83
2021/04/07 02:15:39;;;;;;;8.75;4.65;;;;;;;;;;5029624;28;20476;-80
2021/04/07 02:18:05;;;;;;;9.07;5.28;;;;;;;;;;5030945;28;20442;-79
2021/04/07 02:20:31;;;;;;;9.43;5.03;;;;;;;;;;5031744;28;20480;-79
2021/04/07 02:22:57;;;;;;;10.63;5.45;;;;;;;;;;5033082;28;20377;-79
2021/04/07 02:25:23;;;;;;;10.27;5.45;;;;;;;;;;5031820;28;20384;-80
2021/04/07 02:27:49;;;;;;;10.73;5.65;;;;;;;;;;5031962;28;20417;-81
2021/04/07 02:30:16;;;;;;;9.90;5.72;;;;;;;;;;5031442;28;20452;-81
2021/04/07 02:32:42;;;;;;;13.00;5.97;;;;;;;;;;5031282;28;20901;-81
2021/04/07 02:35:09;;;;;;;12.77;6.43;;;;;;;;;;5030907;28;20369;-80
2021/04/07 02:37:35;;;;;;;12.15;5.95;;;;;;;;;;5029269;28;20776;-82
2021/04/07 02:40:01;;;;;;;8.90;6.00;;;;;;;;;;5031097;28;20864;-79
2021/04/07 02:42:27;;;;;;;9.77;6.22;;;;;;;;;;5030575;28;20942;-79
2021/04/07 02:44:53;;;;;;;10.57;5.88;;;;;;;;;;5029893;28;20461;-80
2021/04/07 02:47:19;;;;;;;10.65;6.47;;;;;;;;;;5029393;28;20440;-80
2021/04/07 02:49:45;;;;;;;12.20;6.37;;;;;;;;;;5029665;28;20397;-81
2021/04/07 02:52:12;;;;;;;10.25;6.13;;;;;;;;;;5031152;28;20797;-81
2021/04/07 02:54:38;;;;;;;9.98;6.68;;;;;;;;;;5030814;28;20377;-79
2021/04/07 02:57:05;;;;;;;13.57;6.10;;;;;;;;;;5030270;28;20377;-80
2021/04/07 02:59:31;;;;;;;10.50;6.40;;;;;;;;;;5030556;28;20378;-79
2021/04/07 03:01:57;;;;;;;9.98;6.47;;;;;;;;;;5029113;28;20420;-82
2021/04/07 03:04:23;;;;;;;11.47;6.10;;;;;;;;;;5030642;28;20397;-80
2021/04/07 03:06:49;;;;;;;10.93;6.88;;;;;;;;;;5030492;28;20864;-80
2021/04/07 03:09:15;;;;;;;14.80;6.85;;;;;;;;;;5028393;28;20413;-83
2021/04/07 03:11:41;;;;;;;12.05;6.47;;;;;;;;;;5028704;28;20476;-82
2021/04/07 03:14:07;;;;;;;12.45;6.50;;;;;;;;;;5029763;28;20456;-79
2021/04/07 03:16:34;;;;;;;12.40;6.57;;;;;;;;;;5030070;28;20377;-80
2021/04/07 03:19:01;;;;;;;11.38;6.82;;;;;;;;;;5029515;28;20377;-81
2021/04/07 03:21:27;;;;;;;10.23;6.40;;;;;;;;;;5029914;28;20898;-81
2021/04/07 03:23:53;;;;;;;11.77;6.80;;;;;;;;;;5030065;28;20939;-79
2021/04/07 03:26:19;;;;;;;11.50;7.40;;;;;;;;;;5029542;28;20469;-80
2021/04/07 03:28:45;;;;;;;12.32;6.93;;;;;;;;;;5029701;28;20500;-82
2021/04/07 03:31:11;;;;;;;13.43;7.43;;;;;;;;;;5030005;28;20890;-81
2021/04/07 03:33:37;;;;;;;12.45;7.05;;;;;;;;;;5028650;28;20476;-80
2021/04/07 03:36:05;;;;;;;14.85;7.70;;;;;;;;;;5029627;28;20377;-79
2021/04/07 03:38:31;;;;;;;11.38;7.22;;;;;;;;;;5029325;28;20373;-82
2021/04/07 03:40:57;;;;;;;13.50;7.38;;;;;;;;;;5029663;28;20377;-81
2021/04/07 03:43:23;;;;;;;14.65;7.05;;;;;;;;;;5028151;28;20855;-80
2021/04/07 03:45:50;;;;;;;14.13;7.28;;;;;;;;;;5029490;28;20816;-82
2021/04/07 03:48:17;;;;;;;13.65;8.18;;;;;;;;;;5027814;28;20413;-79
2021/04/07 03:50:44;;;;;;;12.43;7.57;;;;;;;;;;5028163;28;21126;-79
2021/04/07 03:53:10;;;;;;;13.38;8.05;;;;;;;;;;5029292;28;20369;-80
2021/04/07 03:55:37;;;;;;;11.73;6.80;;;;;;;;;;5029101;28;20402;-80
2021/04/07 03:58:03;;;;;;;11.43;7.35;;;;;;;;;;5027467;28;20396;-79
2021/04/07 04:00:29;;;;;;;15.55;8.43;;;;;;;;;;5029153;28;20472;-80
2021/04/07 04:02:55;;;;;;;12.98;7.38;;;;;;;;;;5029687;28;20388;-79
2021/04/07 04:05:21;;;;;;;16.60;7.93;;;;;;;;;;5028161;28;20382;-80
2021/04/07 04:07:47;;;;;;;11.75;6.88;;;;;;;;;;5027730;28;20413;-79
2021/04/07 04:10:14;;;;;;;14.27;7.68;;;;;;;;;;5029476;28;20405;-80
2021/04/07 04:12:40;;;;;;;13.53;7.30;;;;;;;;;;5027956;28;20397;-80
2021/04/07 04:15:09;;;;;;;14.35;7.63;;;;;;;;;;5029398;28;20377;-81
2021/04/07 04:17:35;;;;;;;11.25;6.95;;;;;;;;;;5028597;28;20381;-80
2021/04/07 04:20:01;;;;;;;12.48;7.20;;;;;;;;;;5027732;28;20878;-80
2021/04/07 04:22:27;;;;;;;15.13;7.03;;;;;;;;;;5029268;28;20373;-80
2021/04/07 04:24:53;;;;;;;13.18;7.85;;;;;;;;;;5029555;28;20856;-81
2021/04/07 04:27:19;;;;;;;14.60;7.40;;;;;;;;;;5026875;28;20384;-81
2021/04/07 04:29:45;;;;;;;13.35;7.18;;;;;;;;;;5029208;28;20471;-81
2021/04/07 04:32:11;;;;;;;13.48;6.82;;;;;;;;;;5028987;28;20729;-81
2021/04/07 04:34:37;;;;;;;12.57;6.60;;;;;;;;;;5028994;28;20862;-78
2021/04/07 04:37:03;;;;;;;15.20;7.20;;;;;;;;;;5028784;28;20374;-80
2021/04/07 04:39:29;;;;;;;12.02;7.15;;;;;;;;;;5028968;28;20384;-83
2021/04/07 04:41:55;;;;;;;14.18;7.07;;;;;;;;;;5027697;28;20380;-80
2021/04/07 04:44:21;;;;;;;15.18;6.93;;;;;;;;;;5028970;28;20396;-84
2021/04/07 04:46:47;;;;;;;17.17;7.25;;;;;;;;;;5028694;28;20377;-81
2021/04/07 04:49:13;;;;;;;13.32;6.78;;;;;;;;;;5027143;28;20452;-82
2021/04/07 04:51:39;;;;;;;16.55;7.45;;;;;;;;;;5028840;28;20370;-79
2021/04/07 04:54:05;;;;;;;14.53;6.87;;;;;;;;;;5028564;28;20407;-81
2021/04/07 04:56:31;;;;;;;14.38;6.85;;;;;;;;;;5028634;28;20866;-81
2021/04/07 04:58:57;;;;;;;13.98;6.97;;;;;;;;;;5028438;28;20370;-79
2021/04/07 05:01:23;;;;;;;13.32;6.55;;;;;;;;;;5028916;28;20381;-82
2021/04/07 05:03:49;;;;;;;13.73;7.03;;;;;;;;;;5028417;28;20473;-79
2021/04/07 05:06:15;;;;;;;11.87;6.30;;;;;;;;;;5028962;28;20894;-81
2021/04/07 05:08:41;;;;;;;13.02;6.57;;;;;;;;;;5032152;28;20495;-79
2021/04/07 05:11:07;;;;;;;15.32;7.20;;;;;;;;;;5030683;28;20377;-80
2021/04/07 05:13:33;;;;;;;14.68;6.47;;;;;;;;;;5031254;28;20838;-82
2021/04/07 05:15:59;;;;;;;14.18;6.65;;;;;;;;;;5032144;28;20408;-82
2021/04/07 05:18:25;;;;;;;16.37;7.63;;;;;;;;;;5030315;28;20799;-81
2021/04/07 05:20:51;;;;;;;12.48;6.90;;;;;;;;;;5032168;28;20460;-79
2021/04/07 05:23:17;;;;;;;13.00;6.28;;;;;;;;;;5032166;28;20373;-82
2021/04/07 05:25:43;;;;;;;14.63;6.28;;;;;;;;;;5032115;28;20727;-80
2021/04/07 05:28:09;;;;;;;11.53;5.93;;;;;;;;;;5030595;28;20463;-80
2021/04/07 05:33:20;;;;;;;13.27;6.53;;;;;;;;;;5031685;28;20468;-80
2021/04/07 05:35:46;;;;;;;15.35;6.72;;;;;;;;;;5032346;28;20381;-83
2021/04/07 05:38:12;;;;;;;12.43;6.05;;;;;;;;;;5031530;28;20516;-81
2021/04/07 05:40:38;;;;;;;13.85;6.40;;;;;;;;;;5030732;28;20382;-82
2021/04/07 05:43:04;;;;;;;12.43;6.40;;;;;;;;;;5034149;28;20374;-80
2021/04/07 05:45:31;;;;;;;13.93;6.70;;;;;;;;;;5032552;28;20385;-81
2021/04/07 05:47:57;;;;;;;16.88;6.85;;;;;;;;;;5032168;28;20404;-79
2021/04/07 05:50:23;;;;;;;12.85;6.53;;;;;;;;;;5031864;28;21216;-79
2021/04/07 05:52:50;;;;;;;16.30;6.63;;;;;;;;;;5032603;28;20431;-81
2021/04/07 05:55:17;;;;;;;14.02;6.15;;;;;;;;;;5031845;28;20375;-81
2021/04/07 05:57:43;;;;;;;14.88;6.68;;;;;;;;;;5031728;28;20358;-82
2021/04/07 06:00:09;;;;;;;13.80;6.43;;;;;;;;;;5030373;28;20380;-80
2021/04/07 06:02:35;;;;;;;16.58;6.30;;;;;;;;;;5031444;28;20409;-82
2021/04/07 06:05:01;;;;;;;11.13;6.20;;;;;;;;;;5030465;28;20404;-81
2021/04/07 06:07:27;;;;;;;12.07;6.38;;;;;;;;;;5031199;28;20887;-82
2021/04/07 06:09:53;;;;;;;16.70;6.72;;;;;;;;;;5033603;28;20397;-80
2021/04/07 06:12:19;;;;;;;14.63;6.65;;;;;;;;;;5038367;28;20381;-79
2021/04/07 06:14:45;;;;;;;13.35;6.15;;;;;;;;;;5040539;28;20461;-80
2021/04/07 06:17:11;;;;;;;13.70;6.13;;;;;;;;;;5038114;28;20377;-80
2021/04/07 06:19:37;;;;;;;13.82;6.35;;;;;;;;;;5032800;28;20393;-80
2021/04/07 06:22:03;;;;;;;18.67;6.20;;;;;;;;;;5030147;28;20377;-80
2021/04/07 06:24:29;;;;;;;14.30;6.03;;;;;;;;;;5020782;28;20571;-81
2021/04/07 06:26:55;;;;;;;13.63;5.82;;;;;;;;;;5030445;28;20373;-81
2021/04/07 06:29:21;;;;;;;14.50;6.18;;;;;;;;;;5030289;28;20961;-81
2021/04/07 06:31:47;;;;;;;13.45;5.80;;;;;;;;;;5031017;28;20382;-80
2021/04/07 06:34:13;;;;;;;15.18;5.95;;;;;;;;;;5031020;28;20472;-80
2021/04/07 06:36:39;;;;;;;13.82;6.32;;;;;;;;;;5030762;28;20397;-82
2021/04/07 06:39:05;;;;;;;17.95;7.53;;;;;;;;;;5031332;28;20943;-82
2021/04/07 06:41:31;;;;;;;13.63;7.13;;;;;;;;;;5030154;28;20386;-81
2021/04/07 06:43:57;;;;;;;15.90;7.95;;;;;;;;;;5031873;28;20748;-83
2021/04/07 06:46:23;;;;;;;18.25;7.82;;;;;;;;;;5031024;28;20427;-80
2021/04/07 06:48:53;;;;;;;15.48;7.75;;;;;;;;;;5030761;28;20444;-82
2021/04/07 06:51:21;;;;;;;15.90;7.93;;;;;;;;;;5030963;28;20779;-81
2021/04/07 06:53:50;;;;;;;14.45;7.95;;;;;;;;;;5030959;28;20366;-83
2021/04/07 06:56:17;;;;;;;16.00;7.57;;;;;;;;;;5030697;28;20368;-81
2021/04/07 06:58:44;;;;;;;14.55;6.80;;;;;;;;;;5030345;28;20924;-80
2021/04/07 07:01:10;;;;;;;13.40;6.75;;;;;;;;;;5027916;28;20419;-80
2021/04/07 07:03:36;;;;;;;16.08;6.85;;;;;;;;;;5028691;28;20811;-81
2021/04/07 07:06:02;;;;;;;17.50;6.95;;;;;;;;;;5029562;28;20469;-82
2021/04/07 07:08:30;;;;;;;15.15;6.75;;;;;;;;;;5030283;28;20413;-81
2021/04/07 07:11:08;;;;;;;13.82;6.07;;;;;;;;;;5029793;28;20509;-82
2021/04/07 07:13:35;;;;;;;13.13;5.87;;;;;;;;;;5029759;28;20914;-82
2021/04/07 07:16:00;;;;;;;13.18;6.05;;;;;;;;;;5030756;28;20412;-82
2021/04/07 07:18:27;;;;;;;13.35;6.22;;;;;;;;;;5028964;28;20378;-83
2021/04/07 07:20:54;;;;;;;16.10;6.57;;;;;;;;;;5029991;28;20377;-83
2021/04/07 07:23:30;;;;;;;13.88;5.60;;;;;;;;;;5026146;28;20377;-81
2021/04/07 07:25:57;;;;;;;14.77;5.30;;;;;;;;;;5028593;28;20441;-81
2021/04/07 07:28:23;;;;;;;16.08;5.90;;;;;;;;;;5038028;28;20405;-81
2021/04/07 07:30:49;;;;;;;14.25;6.07;;;;;;;;;;5028329;28;20377;-81
2021/04/07 07:33:22;;;;;;;12.00;5.55;;;;;;;;;;5029952;28;20365;-80
2021/04/07 07:35:50;;;;;;;15.85;6.65;;;;;;;;;;5030229;28;20480;-81
2021/04/07 07:38:25;;;;;;;17.85;5.82;;;;;;;;;;5029505;28;20372;-83
2021/04/07 07:40:58;;;;;;;11.48;5.97;;;;;;;;;;5029212;28;20428;-81
2021/04/07 07:43:24;;;;;;;18.05;5.53;;;;;;;;;;5030758;28;20369;-86
2021/04/07 07:45:50;;;;;;;14.52;5.53;;;;;;;;;;5030450;28;20452;-87
2021/04/07 07:48:18;;;;;;;15.60;5.70;;;;;;;;;;5029474;28;20496;-85
2021/04/07 07:50:45;;;;;;;12.32;4.85;;;;;;;;;;5023612;28;20384;-81
2021/04/07 07:53:15;;;;;;;14.93;5.30;;;;;;;;;;5028172;28;20718;-85
2021/04/07 07:55:41;;;;;;;13.93;5.57;;;;;;;;;;5029512;28;20463;-83
2021/04/07 07:58:07;;;;;;;13.93;5.35;;;;;;;;;;5029045;28;20793;-83
2021/04/07 08:00:33;;;;;;;14.57;5.10;;;;;;;;;;5027778;28;20413;-84
2021/04/07 08:03:16;;;;;;;13.13;5.40;;;;;;;;;;5028893;28;20377;-81
2021/04/07 08:05:43;;;;;;;15.38;5.03;;;;;;;;;;5028122;28;20369;-83
2021/04/07 08:08:09;;;;;;;16.35;5.60;;;;;;;;;;5028642;28;20463;-81
2021/04/07 08:10:37;;;;;;;13.77;5.40;;;;;;;;;;5028720;28;20377;-82
2021/04/07 08:13:05;;;;;;;15.13;5.33;;;;;;;;;;5010859;28;20410;-81
2021/04/07 08:15:32;;;;;;;15.00;5.60;;;;;;;;;;5009472;28;20447;-83
2021/04/07 08:17:58;;;;;;;14.05;5.45;;;;;;;;;;5026234;28;20749;-83
2021/04/07 08:20:25;;;;;;;16.00;5.28;;;;;;;;;;5029387;28;20378;-82
2021/04/07 08:22:54;;;;;;;16.88;5.30;;;;;;;;;;5010214;28;20386;-82
2021/04/07 08:25:21;;;;;;;11.55;4.13;;;;;;;;;;5018205;28;20903;-83
2021/04/07 08:27:51;;;;;;;14.60;4.03;;;;;;;;;;5027708;28;20413;-81
2021/04/07 08:30:18;;;;;;;10.85;4.55;;;;;;;;;;5012516;28;20383;-81
2021/04/07 08:32:45;;;;;;;13.70;4.32;;;;;;;;;;5009717;28;20450;-86
2021/04/07 08:35:12;;;;;;;12.43;4.20;;;;;;;;;;5009716;28;20429;-82
2021/04/07 08:37:38;;;;;;;11.73;4.35;;;;;;;;;;5008588;28;20382;-87
2021/04/07 08:40:15;;;;;;;12.45;4.15;;;;;;;;;;5022988;28;20506;-86
2021/04/07 08:42:41;;;;;;;12.98;4.05;;;;;;;;;;5031851;28;20373;-83
2021/04/07 08:45:09;;;;;;;10.43;3.88;;;;;;;;;;5032816;28;20452;-85
2021/04/07 08:47:44;;;;;;;12.93;4.05;;;;;;;;;;5030753;28;20424;-84
2021/04/07 08:50:11;;;;;;;11.05;3.75;;;;;;;;;;5031522;28;20397;-82
2021/04/07 08:52:43;;;;;;;12.43;4.50;;;;;;;;;;5030151;28;20390;-83
2021/04/07 08:55:28;;;;;;;15.93;4.37;;;;;;;;;;5025755;28;20867;-81
2021/04/07 08:58:01;;;;;;;12.30;3.90;;;;;;;;;;5012757;28;20493;-83
2021/04/07 09:00:30;;;;;;;12.43;3.70;;;;;;;;;;5027173;28;20446;-86
2021/04/07 09:02:58;;;;;;;12.13;3.60;;;;;;;;;;5024170;28;20390;-83
2021/04/07 09:05:32;;;;;;;9.43;3.55;;;;;;;;;;5028949;28;20472;-83
2021/04/07 09:07:59;;;;;;;10.27;3.72;;;;;;;;;;5028622;28;20401;-88
2021/04/07 09:10:26;;;;;;;13.02;4.13;;;;;;;;;;5031319;28;20468;-84
2021/04/07 09:12:54;;;;;;;11.15;4.22;;;;;;;;;;5031215;28;20398;-88
2021/04/07 09:15:20;;;;;;;11.00;3.70;;;;;;;;;;5029158;28;20408;-86
2021/04/07 09:17:47;;;;;;;13.32;4.32;;;;;;;;;;5030550;28;20871;-85
2021/04/07 09:20:32;;;;;;;8.45;3.70;;;;;;;;;;5031184;28;20485;-86
2021/04/07 09:23:19;;;;;;;12.75;3.88;;;;;;;;;;5030687;28;20385;-82
2021/04/07 09:25:52;;;;;;;8.80;3.65;;;;;;;;;;5019354;28;20402;-84
2021/04/07 09:28:18;;;;;;;11.55;3.90;;;;;;;;;;5011269;28;20425;-85
2021/04/07 09:30:46;;;;;;;12.30;4.10;;;;;;;;;;5012782;28;21229;-82
2021/04/07 09:33:14;;;;;;;10.73;3.50;;;;;;;;;;5013171;28;20403;-84
2021/04/07 09:36:00;;;;;;;10.48;3.90;;;;;;;;;;5019348;28;20946;-82
2021/04/07 09:38:28;;;;;;;10.00;4.07;;;;;;;;;;5026268;28;20480;-81
2021/04/07 09:41:02;;;;;;;10.77;3.83;;;;;;;;;;5032519;28;20899;-83
2021/04/07 09:43:29;;;;;;;10.43;3.60;;;;;;;;;;5032361;28;20381;-83
2021/04/07 09:45:55;;;;;;;10.13;4.10;;;;;;;;;;5026383;28;20586;-82
2021/04/07 09:48:21;;;;;;;10.67;3.60;;;;;;;;;;5014858;28;20498;-85
2021/04/07 09:50:47;;;;;;;9.95;3.45;;;;;;;;;;5033359;28;20365;-86
2021/04/07 09:53:25;;;;;;;9.00;3.30;;;;;;;;;;5023948;28;20414;-84
2021/04/07 09:55:59;;;;;;;9.50;4.07;;;;;;;;;;5013069;28;20375;-83
2021/04/07 09:58:25;;;;;;;9.82;3.35;;;;;;;;;;5012811;28;20421;-85
2021/04/07 10:00:51;;;;;;;10.15;4.10;;;;;;;;;;5014999;28;20389;-85
2021/04/07 10:03:17;;;;;;;11.83;4.50;;;;;;;;;;5013087;28;20541;-82
2021/04/07 10:05:43;;;;;;;10.05;3.67;;;;;;;;;;5012498;28;20454;-85
2021/04/07 10:08:13;;;;;;;9.35;3.72;;;;;;;;;;5010297;28;20415;-82
2021/04/07 10:10:39;;;;;;;11.37;3.73;;;;;;;;;;5011535;28;20474;-83
2021/04/07 10:13:05;;;;;;;11.80;3.80;;;;;;;;;;5032605;28;20454;-82
2021/04/07 10:15:32;;;;;;;10.38;3.70;;;;;;;;;;5030814;28;20370;-84
2021/04/07 10:17:57;;;;;;;10.25;3.83;;;;;;;;;;5031715;28;20374;-83
2021/04/07 10:20:29;;;;;;;9.70;3.80;;;;;;;;;;5032913;28;20373;-90
2021/04/07 10:22:56;;;;;;;9.23;3.72;;;;;;;;;;5012672;28;20406;-81
2021/04/07 10:25:23;;;;;;;9.27;3.58;;;;;;;;;;5016392;28;20540;-83
2021/04/07 10:27:50;;;;;;;9.07;3.75;;;;;;;;;;5026093;28;20401;-87
2021/04/07 10:30:20;;;;;;;10.73;5.28;;;;;;;;;;5030461;28;20439;-87
2021/04/07 10:32:49;;;;;;;9.38;3.40;;;;;;;;;;5029039;28;20394;-82
2021/04/07 10:35:22;;;;;;;8.32;3.60;;;;;;;;;;5024687;28;20393;-80
2021/04/07 10:37:57;;;;;;;8.80;3.73;;;;;;;;;;5021210;28;21340;-81
2021/04/07 10:40:26;;;;;;;9.20;3.80;;;;;;;;;;5026814;28;20783;-85
2021/04/07 10:42:55;;;;;;;9.93;3.95;;;;;;;;;;5026415;28;20463;-83
2021/04/07 10:45:23;;;;;;;7.57;3.72;;;;;;;;;;5028496;28;20373;-86
2021/04/07 10:47:50;;;;;;;8.10;3.70;;;;;;;;;;5025319;28;20441;-83
2021/04/07 10:50:17;;;;;;;9.77;3.50;;;;;;;;;;5028411;28;20393;-85
2021/04/07 10:52:45;;;;;;;8.10;3.80;;;;;;;;;;5028435;28;20409;-86
2021/04/07 10:55:14;;;;;;;9.30;3.70;;;;;;;;;;5026739;28;20453;-87
2021/04/07 10:57:48;;;;;;;40.80;7.50;;;;;;;;;;5025387;28;20887;-86
2021/04/07 11:00:33;;;;;;;7.82;4.13;;;;;;;;;;5029112;28;20381;-84
2021/04/07 11:03:01;;;;;;;9.52;4.28;;;;;;;;;;5024223;28;20807;-88
2021/04/07 11:05:28;;;;;;;9.43;4.75;;;;;;;;;;5026522;28;20385;-82
2021/04/07 11:08:01;;;;;;;10.10;4.68;;;;;;;;;;5026823;28;20420;-87
2021/04/07 11:10:56;;;;;;;7.78;3.90;;;;;;;;;;5027699;28;20381;-79
2021/04/07 11:13:23;;;;;;;8.63;3.33;;;;;;;;;;5023838;28;20478;-78
2021/04/07 11:15:51;;;;;;;8.35;3.78;;;;;;;;;;5028561;28;20505;-82
2021/04/07 11:18:27;;;;;;;9.43;4.22;;;;;;;;;;5027850;28;20381;-83
2021/04/07 11:20:53;;;;;;;8.10;3.70;;;;;;;;;;5027561;28;20386;-81
2021/04/07 11:23:19;;;;;;;10.02;4.15;;;;;;;;;;5028025;28;20370;-80
2021/04/07 11:25:51;;;;;;;7.75;3.40;;;;;;;;;;5027632;28;20541;-87
2021/04/07 11:28:21;;;;;;;7.03;3.15;;;;;;;;;;5027325;28;20409;-86
2021/04/07 11:31:01;;;;;;;9.35;3.78;;;;;;;;;;5028739;28;20377;-85
2021/04/07 11:33:35;;;;;;;8.38;3.45;;;;;;;;;;5027421;28;20521;-82
2021/04/07 11:38:46;;;;;;;8.45;3.63;;;;;;;;;;5028388;28;20401;-85
2021/04/07 11:46:25;;;;;;;7.47;2.87;;;;;;;;;;5026196;28;20474;-84
2021/04/07 11:48:52;;;;;;;7.22;2.83;;;;;;;;;;5025661;28;21809;-84
2021/04/07 11:51:19;;;;;;;6.53;2.92;;;;;;;;;;5024940;28;20756;-80
2021/04/07 11:53:47;;;;;;;5.18;2.90;;;;;;;;;;5025950;28;20413;-87
2021/04/07 11:56:14;;;;;;;6.43;2.83;;;;;;;;;;5026398;28;20377;-81
2021/04/07 11:58:40;;;;;;;5.00;2.83;;;;;;;;;;5025217;28;20485;-87
2021/04/07 12:01:06;;;;;;;5.57;2.60;;;;;;;;;;5028392;28;20431;-83
2021/04/07 12:03:32;;;;;;;6.82;2.22;;;;;;;;;;5027208;28;21726;-86
2021/04/07 12:06:02;;;;;;;6.35;2.33;;;;;;;;;;5026630;28;20374;-84
2021/04/07 12:08:28;;;;;;;6.75;2.45;;;;;;;;;;5027056;28;20425;-83
2021/04/07 12:10:54;;;;;;;6.00;2.40;;;;;;;;;;5026111;28;20373;-89
2021/04/07 12:13:20;;;;;;;5.18;2.30;;;;;;;;;;5028830;28;20381;-82
2021/04/07 12:15:46;;;;;;;5.22;2.28;;;;;;;;;;5028347;28;20409;-82
2021/04/07 12:18:12;;;;;;;5.05;2.40;;;;;;;;;;5028431;28;20377;-80
2021/04/07 12:20:38;;;;;;;3.28;2.05;;;;;;;;;;5026760;28;20807;-92
2021/04/07 12:23:04;;;;;;;5.15;1.98;;;;;;;;;;5028383;28;20409;-83
2021/04/07 12:25:31;;;;;;;5.35;1.95;;;;;;;;;;5028249;28;20428;-86
2021/04/07 12:27:57;;;;;;;3.72;2.10;;;;;;;;;;5028517;28;20434;-87
2021/04/07 12:30:24;;;;;;;5.15;2.20;;;;;;;;;;5028387;28;20369;-82
2021/04/07 12:32:51;;;;;;;4.18;1.95;;;;;;;;;;5026936;28;20403;-85
2021/04/07 12:35:17;;;;;;;5.00;2.30;;;;;;;;;;5029091;28;20496;-87
2021/04/07 12:37:44;;;;;;;3.45;2.10;;;;;;;;;;5028860;28;20485;-84
2021/04/07 12:40:14;;;;;;;4.63;1.90;;;;;;;;;;5028564;28;20416;-82
2021/04/07 12:42:40;;;;;;;2.90;1.97;;;;;;;;;;5028197;28;20393;-80
2021/04/07 12:45:09;;;;;;;3.85;2.10;;;;;;;;;;5026777;28;21011;-87
2021/04/07 12:47:40;;;;;;;4.75;2.00;;;;;;;;;;5027241;28;20855;-87
2021/04/07 12:50:07;;;;;;;4.03;1.80;;;;;;;;;;5025931;28;20378;-87
2021/04/07 12:52:33;;;;;;;4.85;1.85;;;;;;;;;;5028366;28;20894;-83
2021/04/07 12:54:59;;;;;;;3.33;1.90;;;;;;;;;;5028250;28;20408;-85
2021/04/07 12:57:25;;;;;;;3.05;1.80;;;;;;;;;;5025612;28;20385;-83
2021/04/07 12:59:53;;;;;;;3.38;2.55;;;;;;;;;;5023062;28;20968;-81
2021/04/07 13:02:19;;;;;;;3.63;2.10;;;;;;;;;;5023385;28;20456;-87
2021/04/07 13:04:45;;;;;;;4.60;2.58;;;;;;;;;;5025841;28;20456;-87
2021/04/07 13:07:12;;;;;;;3.72;1.92;;;;;;;;;;5025037;28;20400;-86
2021/04/07 13:09:38;;;;;;;3.95;2.03;;;;;;;;;;5025652;28;20413;-84
2021/04/07 13:12:04;;;;;;;4.47;2.15;;;;;;;;;;5024328;28;20450;-84
2021/04/07 13:14:30;;;;;;;5.88;2.63;;;;;;;;;;5025726;28;20871;-83
2021/04/07 13:16:57;;;;;;;3.83;2.00;;;;;;;;;;5027148;28;20523;-79
2021/04/07 13:19:26;;;;;;;3.25;2.30;;;;;;;;;;5026497;28;20902;-82
2021/04/07 13:21:51;;;;;;;5.50;1.98;;;;;;;;;;5027707;28;20398;-83
2021/04/07 13:24:17;;;;;;;5.00;2.65;;;;;;;;;;5028000;28;20818;-86
2021/04/07 13:26:43;;;;;;;4.57;2.00;;;;;;;;;;5025579;28;20392;-88
2021/04/07 13:29:09;;;;;;;4.13;1.92;;;;;;;;;;5029049;28;20455;-83
2021/04/07 13:31:46;;;;;;;4.23;2.20;;;;;;;;;;5028097;28;21061;-84
2021/04/07 13:34:20;;;;;;;4.40;1.85;;;;;;;;;;5028418;28;20509;-85
2021/04/07 13:36:59;;;;;;;3.78;2.15;;;;;;;;;;5029437;28;20395;-84
2021/04/07 13:39:38;;;;;;;4.43;2.05;;;;;;;;;;5030027;28;20388;-88
2021/04/07 13:44:45;;;;;;;3.88;2.15;;;;;;;;;;5032523;28;20386;-87
2021/04/07 13:47:15;;;;;;;3.08;2.17;;;;;;;;;;5032176;28;20472;-83
2021/04/07 13:49:40;;;;;;;3.33;2.40;;;;;;;;;;5032424;28;20568;-82
2021/04/07 13:52:06;;;;;;;4.07;2.30;;;;;;;;;;5031320;28;20866;-81
2021/04/07 13:54:32;;;;;;;4.47;2.40;;;;;;;;;;5031095;28;20384;-85
2021/04/07 13:59:25;;;;;;;3.65;2.65;;;;;;;;;;5032489;28;20373;-83
2021/04/07 14:01:52;;;;;;;6.18;3.20;;;;;;;;;;5032025;28;20369;-87
2021/04/07 14:04:18;;;;;;;4.63;2.70;;;;;;;;;;5031119;28;20404;-87
2021/04/07 14:06:44;;;;;;;4.15;2.65;;;;;;;;;;5031041;28;20374;-82
2021/04/07 14:09:10;;;;;;;3.90;2.80;;;;;;;;;;5031950;28;20409;-83
2021/04/07 14:11:36;;;;;;;4.93;3.17;;;;;;;;;;5032191;28;20834;-87
2021/04/07 14:14:02;;;;;;;5.22;3.15;;;;;;;;;;5030054;28;20369;-88
2021/04/07 14:16:28;;;;;;;5.05;3.55;;;;;;;;;;5031418;28;20384;-87
2021/04/07 14:18:54;;;;;;;5.45;4.00;;;;;;;;;;5032966;28;20476;-79
2021/04/07 14:21:20;;;;;;;4.47;3.80;;;;;;;;;;5032597;28;20890;-79
2021/04/07 14:23:46;;;;;;;4.47;3.97;;;;;;;;;;5031984;28;20385;-80
2021/04/07 14:26:15;;;;;;;5.30;4.13;;;;;;;;;;5034092;28;20424;-86
2021/04/07 14:28:42;;;;;;;5.30;4.00;;;;;;;;;;5034340;28;20442;-80
2021/04/07 14:31:08;;;;;;;6.10;4.93;;;;;;;;;;5031352;28;20394;-86
2021/04/07 14:33:34;;;;;;;6.97;4.72;;;;;;;;;;5032525;28;20739;-87
2021/04/07 14:36:00;;;;;;;5.77;5.17;;;;;;;;;;5036225;28;20472;-86
2021/04/07 14:38:26;;;;;;;6.47;5.45;;;;;;;;;;5028605;28;20432;-83
2021/04/07 14:40:56;;;;;;;5.72;5.20;;;;;;;;;;5030801;28;20385;-82
2021/04/07 14:43:22;;;;;;;6.65;5.50;;;;;;;;;;5033112;28;20385;-82
2021/04/07 14:45:49;;;;;;;6.65;5.13;;;;;;;;;;5031647;28;20435;-89
2021/04/07 14:48:20;;;;;;;6.25;5.43;;;;;;;;;;5039765;28;20483;-87
2021/04/07 14:50:49;;;;;;;6.40;5.70;;;;;;;;;;5029144;28;20389;-80
2021/04/07 14:53:22;;;;;;;6.75;5.90;;;;;;;;;;5030672;28;20404;-86